Mc Cook Ben Nelson Regional Airport Mc Cook US
ICAO: KMCK
IATA: MCK
Category: Medium
Scheduled Services: No

Elevation: 2583 ft
TransAlt. 18000 ft.

Airport Communications:
ASOS:119.025
DENVER CNTR:118.475
COLUMBUS RDO:122.6
CTAF/UNICOM:122.8

KMCK Zoom In..

Runways:

(A) RW 04 length 4000 ft width 75 ft
---- / hdg 38

(B) RW 12 length 6450 ft width 100 ft
ILS 110.95 / hdg 123

(C) RW 17 length 1350 ft width 160 ft
---- / hdg 173

(D) RW 22 length 4000 ft width 75 ft
---- / hdg 218

(E) RW 30 length 6450 ft width 100 ft
---- / hdg 303

(F) RW 35 length 1350 ft width 160 ft
---- / hdg 353

Location; KMCK
Day. 26 / Time. 13.53 Zulu
* Altimeter: 29.88
* Temperature: 22° c. 71.6°f.
* Wind from: 250° Speed 03 kn.
Dewpoint: 16° c.
Visibility: 10 Statute Miles.
Clouds: Clear (automated report).

KMCK 261353Z AUTO 25003KT 10SM CLR 22/16 A2988 RMK AO2 SLP094 T02220161 $


Wind From 250°
Speed 03 kn.

 
 
jpsmedia.com for Web Design SOUNDCLOUD worldairports.se 2018   terms of use